METAR Data
IDs: Format: Raw Decoded Include TAF

Data at: 2230 UTC 30 Jun 2022

MRPV 302200Z 09012KT 9999 SCT035 SCT200 24/16 A3000 NOSIG

MROC 302200Z 08009KT 060V120 9999 SCT045 BKN200 26/17 A3001 NOSIG

No METAR found for